Time;durP1;ratioP1;P1;durP2;ratioP2;P2;SDS_P1;SDS_P2;PMS_P1;PMS_P2;Temp;Humidity;BMP_temperature;BMP_pressure;BME280_temperature;BME280_humidity;BME280_pressure;Samples;Min_cycle;Max_cycle;Signal;HPM_P1;HPM_P2
2021/03/21 00:00:50;;;;;;;10.30;8.90;;;;;;;;;;5036085;28;20210;-83
2021/03/21 00:03:18;;;;;;;9.43;8.50;;;;;;;;;;5036452;28;20193;-83
2021/03/21 00:05:48;;;;;;;10.55;9.32;;;;;;;;;;5036465;28;20321;-83
2021/03/21 00:08:19;;;;;;;10.88;9.82;;;;;;;;;;5035974;28;20685;-83
2021/03/21 00:10:53;;;;;;;11.07;9.32;;;;;;;;;;5035981;28;20202;-84
2021/03/21 00:13:22;;;;;;;11.73;9.30;;;;;;;;;;5036042;28;20209;-83
2021/03/21 00:15:52;;;;;;;9.80;8.38;;;;;;;;;;5035789;28;20194;-84
2021/03/21 00:18:24;;;;;;;9.02;8.07;;;;;;;;;;5035289;28;20226;-83
2021/03/21 00:20:51;;;;;;;12.02;8.77;;;;;;;;;;5035382;28;20189;-83
2021/03/21 00:23:20;;;;;;;10.60;8.88;;;;;;;;;;5034797;28;20260;-84
2021/03/21 00:25:47;;;;;;;11.18;9.13;;;;;;;;;;5035311;28;20191;-83
2021/03/21 00:28:19;;;;;;;12.13;10.02;;;;;;;;;;5034927;28;20723;-83
2021/03/21 00:30:49;;;;;;;9.93;8.52;;;;;;;;;;5035321;28;20206;-84
2021/03/21 00:33:19;;;;;;;10.27;9.20;;;;;;;;;;5036130;28;20237;-86
2021/03/21 00:35:46;;;;;;;11.80;10.60;;;;;;;;;;5035595;28;20241;-86
2021/03/21 00:38:19;;;;;;;14.75;10.38;;;;;;;;;;5035058;28;20226;-85
2021/03/21 00:40:46;;;;;;;10.82;9.70;;;;;;;;;;5035105;28;20201;-86
2021/03/21 00:43:14;;;;;;;10.65;9.07;;;;;;;;;;5034914;28;20179;-85
2021/03/21 00:45:40;;;;;;;10.10;9.10;;;;;;;;;;5035200;28;20187;-85
2021/03/21 00:48:12;;;;;;;13.27;9.48;;;;;;;;;;5034739;28;20226;-84
2021/03/21 00:50:39;;;;;;;10.65;9.43;;;;;;;;;;5034762;28;20240;-84
2021/03/21 00:53:06;;;;;;;11.05;9.95;;;;;;;;;;5035094;28;20234;-86
2021/03/21 00:55:34;;;;;;;11.02;9.80;;;;;;;;;;5034688;28;20183;-84
2021/03/21 00:58:01;;;;;;;10.43;9.43;;;;;;;;;;5034603;28;20233;-86
2021/03/21 01:00:31;;;;;;;10.32;8.68;;;;;;;;;;5034644;28;20179;-84
2021/03/21 01:02:58;;;;;;;10.07;9.02;;;;;;;;;;5034398;28;20201;-86
2021/03/21 01:05:29;;;;;;;13.90;11.27;;;;;;;;;;5034684;28;20203;-87
2021/03/21 01:07:57;;;;;;;11.20;10.02;;;;;;;;;;5034532;28;20221;-85
2021/03/21 01:10:28;;;;;;;11.60;8.50;;;;;;;;;;5034713;28;20212;-85
2021/03/21 01:12:56;;;;;;;12.85;10.23;;;;;;;;;;5034551;28;20187;-85
2021/03/21 01:15:24;;;;;;;9.90;8.90;;;;;;;;;;5034621;28;20203;-85
2021/03/21 01:17:52;;;;;;;11.82;10.68;;;;;;;;;;5034510;28;20214;-85
2021/03/21 01:20:23;;;;;;;10.68;9.48;;;;;;;;;;5034187;28;20230;-86
2021/03/21 01:22:51;;;;;;;11.10;9.70;;;;;;;;;;5034225;28;20194;-86
2021/03/21 01:25:21;;;;;;;9.45;8.55;;;;;;;;;;5034389;28;20182;-85
2021/03/21 01:27:48;;;;;;;9.85;8.85;;;;;;;;;;5034030;28;20712;-85
2021/03/21 01:30:17;;;;;;;10.27;9.27;;;;;;;;;;5034316;28;20206;-84
2021/03/21 01:32:44;;;;;;;11.95;9.27;;;;;;;;;;5033852;28;20649;-86
2021/03/21 01:35:13;;;;;;;10.45;9.23;;;;;;;;;;5034605;28;20198;-85
2021/03/21 01:37:40;;;;;;;10.52;8.70;;;;;;;;;;5033900;28;20226;-86
2021/03/21 01:40:10;;;;;;;9.43;8.52;;;;;;;;;;5034065;28;20536;-85
2021/03/21 01:42:39;;;;;;;8.75;7.80;;;;;;;;;;5034024;28;20216;-85
2021/03/21 01:45:35;;;;;;;9.32;8.35;;;;;;;;;;5034188;28;20276;-85
2021/03/21 01:48:06;;;;;;;8.88;8.00;;;;;;;;;;5033981;28;20225;-85
2021/03/21 01:50:45;;;;;;;10.20;8.57;;;;;;;;;;5033820;28;20240;-84
2021/03/21 01:53:12;;;;;;;7.95;7.15;;;;;;;;;;5033556;28;20193;-85
2021/03/21 01:55:41;;;;;;;8.23;7.30;;;;;;;;;;5033486;28;20228;-85
2021/03/21 01:58:08;;;;;;;7.70;6.95;;;;;;;;;;5033361;28;20698;-85
2021/03/21 02:00:38;;;;;;;7.07;6.38;;;;;;;;;;5033052;28;20252;-86
2021/03/21 02:03:06;;;;;;;7.50;6.72;;;;;;;;;;5033645;28;20191;-85
2021/03/21 02:05:33;;;;;;;7.50;6.80;;;;;;;;;;5033283;28;20183;-86
2021/03/21 02:08:32;;;;;;;6.65;5.95;;;;;;;;;;5033224;28;20222;-85
2021/03/21 02:11:06;;;;;;;6.57;5.78;;;;;;;;;;5031812;28;20213;-85
2021/03/21 02:13:41;;;;;;;5.53;5.07;;;;;;;;;;5033058;28;20224;-84
2021/03/21 02:16:12;;;;;;;4.95;4.55;;;;;;;;;;5032856;28;20182;-85
2021/03/21 02:18:46;;;;;;;5.25;4.65;;;;;;;;;;5032868;28;20272;-85
2021/03/21 02:21:24;;;;;;;3.80;3.50;;;;;;;;;;5033231;28;20557;-86
2021/03/21 02:24:17;;;;;;;4.80;4.30;;;;;;;;;;5033130;28;20191;-84
2021/03/21 02:26:55;;;;;;;4.53;4.10;;;;;;;;;;5033130;28;20226;-83
2021/03/21 02:33:07;;;;;;;4.20;3.75;;;;;;;;;;5032684;28;20213;-85
2021/03/21 02:35:40;;;;;;;4.30;3.90;;;;;;;;;;5032264;28;20198;-85
2021/03/21 02:38:13;;;;;;;4.55;4.18;;;;;;;;;;5032784;28;20225;-85
2021/03/21 02:40:43;;;;;;;3.60;3.30;;;;;;;;;;5032856;28;20183;-84
2021/03/21 02:43:13;;;;;;;3.80;3.50;;;;;;;;;;5033172;28;20210;-86
2021/03/21 02:45:43;;;;;;;3.78;3.47;;;;;;;;;;5032970;28;20186;-85
2021/03/21 02:48:16;;;;;;;3.50;3.20;;;;;;;;;;5033021;28;20226;-85
2021/03/21 02:50:48;;;;;;;3.35;3.13;;;;;;;;;;5032907;28;20571;-85
2021/03/21 02:53:19;;;;;;;3.22;2.92;;;;;;;;;;5032743;28;20193;-86
2021/03/21 02:55:49;;;;;;;3.85;3.10;;;;;;;;;;5032686;28;20202;-85
2021/03/21 02:58:21;;;;;;;2.97;2.78;;;;;;;;;;5032414;28;20758;-84
2021/03/21 03:00:53;;;;;;;3.40;3.10;;;;;;;;;;5032494;28;20191;-85
2021/03/21 03:03:22;;;;;;;3.03;2.83;;;;;;;;;;5032650;28;20186;-85
2021/03/21 03:05:53;;;;;;;2.90;2.70;;;;;;;;;;5032355;28;20229;-84
2021/03/21 03:08:24;;;;;;;2.90;2.70;;;;;;;;;;5032319;28;20223;-85
2021/03/21 03:10:54;;;;;;;3.17;2.92;;;;;;;;;;5032380;28;20217;-84
2021/03/21 03:13:25;;;;;;;3.58;3.28;;;;;;;;;;5032705;28;20267;-86
2021/03/21 03:15:58;;;;;;;2.97;2.78;;;;;;;;;;5031997;28;20248;-85
2021/03/21 03:18:37;;;;;;;3.45;3.15;;;;;;;;;;5031974;28;20732;-84
2021/03/21 03:21:07;;;;;;;2.55;2.35;;;;;;;;;;5031771;28;20186;-85
2021/03/21 03:23:39;;;;;;;2.58;2.38;;;;;;;;;;5031184;28;20191;-85
2021/03/21 03:26:10;;;;;;;3.20;2.92;;;;;;;;;;5032388;28;20202;-85
2021/03/21 03:28:43;;;;;;;2.92;2.72;;;;;;;;;;5031858;28;20225;-85
2021/03/21 03:31:16;;;;;;;2.38;2.28;;;;;;;;;;5032111;28;20194;-85
2021/03/21 03:33:44;;;;;;;2.78;2.58;;;;;;;;;;5032247;28;20229;-83
2021/03/21 03:36:17;;;;;;;3.45;3.15;;;;;;;;;;5032075;28;20189;-86
2021/03/21 03:38:46;;;;;;;3.50;3.20;;;;;;;;;;5032076;28;20555;-85
2021/03/21 03:41:30;;;;;;;2.78;2.58;;;;;;;;;;5032123;28;20202;-84
2021/03/21 03:44:08;;;;;;;3.25;3.00;;;;;;;;;;5032113;28;20206;-86
2021/03/21 03:46:40;;;;;;;2.65;2.45;;;;;;;;;;5034857;28;20237;-85
2021/03/21 03:49:21;;;;;;;2.85;2.65;;;;;;;;;;5035866;28;20206;-85
2021/03/21 03:52:11;;;;;;;2.90;2.67;;;;;;;;;;5035383;28;20562;-83
2021/03/21 03:54:47;;;;;;;3.13;2.90;;;;;;;;;;5035656;28;20225;-85
2021/03/21 03:57:19;;;;;;;3.15;2.50;;;;;;;;;;5035386;28;20210;-85
2021/03/21 04:00:14;;;;;;;2.83;2.60;;;;;;;;;;5035414;28;20183;-85
2021/03/21 04:02:48;;;;;;;2.80;2.60;;;;;;;;;;5027994;28;20207;-85
2021/03/21 04:05:24;;;;;;;2.83;2.55;;;;;;;;;;5035843;28;20190;-85
2021/03/21 04:07:59;;;;;;;2.50;2.30;;;;;;;;;;5035144;28;20218;-85
2021/03/21 04:10:36;;;;;;;2.58;2.38;;;;;;;;;;5035250;28;20209;-85
2021/03/21 04:13:09;;;;;;;3.92;3.63;;;;;;;;;;5035740;28;20191;-85
2021/03/21 04:15:41;;;;;;;3.50;2.70;;;;;;;;;;5035565;28;20202;-85
2021/03/21 04:18:13;;;;;;;2.53;2.33;;;;;;;;;;5035320;28;20222;-85
2021/03/21 04:20:45;;;;;;;3.22;2.85;;;;;;;;;;5035073;28;20250;-85
2021/03/21 04:23:16;;;;;;;2.58;2.38;;;;;;;;;;5035040;28;20645;-86
2021/03/21 04:25:46;;;;;;;2.80;2.60;;;;;;;;;;5035251;28;20244;-84
2021/03/21 04:28:19;;;;;;;2.53;2.33;;;;;;;;;;5034997;28;20237;-84
2021/03/21 04:30:49;;;;;;;2.95;2.65;;;;;;;;;;5034951;28;20214;-85
2021/03/21 04:33:18;;;;;;;2.95;2.70;;;;;;;;;;5034978;28;20252;-86
2021/03/21 04:35:51;;;;;;;3.03;2.53;;;;;;;;;;5035167;28;20186;-85
2021/03/21 04:38:24;;;;;;;2.78;2.58;;;;;;;;;;5034619;28;20218;-85
2021/03/21 04:40:51;;;;;;;2.78;2.58;;;;;;;;;;5034628;28;20206;-86
2021/03/21 04:43:23;;;;;;;2.58;2.38;;;;;;;;;;5034365;28;20575;-85
2021/03/21 04:45:53;;;;;;;2.40;2.20;;;;;;;;;;5034398;28;20264;-85
2021/03/21 04:48:25;;;;;;;2.20;2.00;;;;;;;;;;5034540;28;20305;-85
2021/03/21 04:51:00;;;;;;;1.95;1.85;;;;;;;;;;5034531;28;20229;-85
2021/03/21 04:53:37;;;;;;;3.15;2.10;;;;;;;;;;5034579;28;20189;-85
2021/03/21 04:56:10;;;;;;;2.40;2.20;;;;;;;;;;5034319;28;20182;-85
2021/03/21 04:58:40;;;;;;;2.33;2.17;;;;;;;;;;5033764;28;20225;-85
2021/03/21 05:01:12;;;;;;;1.85;1.75;;;;;;;;;;5034660;28;20183;-85
2021/03/21 05:03:43;;;;;;;2.00;1.90;;;;;;;;;;5034453;28;20191;-85
2021/03/21 05:06:16;;;;;;;2.00;1.90;;;;;;;;;;5034372;28;20178;-85
2021/03/21 05:08:52;;;;;;;2.47;2.28;;;;;;;;;;5034331;28;20183;-85
2021/03/21 05:11:20;;;;;;;1.95;1.85;;;;;;;;;;5034480;28;20207;-85
2021/03/21 05:13:55;;;;;;;2.40;2.15;;;;;;;;;;5034311;28;20187;-86
2021/03/21 05:16:26;;;;;;;1.98;1.88;;;;;;;;;;5034639;28;20186;-86
2021/03/21 05:18:59;;;;;;;2.15;2.00;;;;;;;;;;5034762;28;20234;-86
2021/03/21 05:21:36;;;;;;;1.70;1.60;;;;;;;;;;5034464;28;20221;-84
2021/03/21 05:24:05;;;;;;;2.13;2.00;;;;;;;;;;5034495;28;20198;-85
2021/03/21 05:26:37;;;;;;;2.05;1.92;;;;;;;;;;5034221;28;20187;-86
2021/03/21 05:29:32;;;;;;;2.47;2.28;;;;;;;;;;5035190;28;20183;-85
2021/03/21 05:31:59;;;;;;;2.30;2.10;;;;;;;;;;5033970;28;20187;-85
2021/03/21 05:34:26;;;;;;;1.95;1.85;;;;;;;;;;5034361;28;20198;-86
2021/03/21 05:37:16;;;;;;;2.40;2.20;;;;;;;;;;5033938;28;20222;-85
2021/03/21 05:39:46;;;;;;;2.00;1.90;;;;;;;;;;5033564;28;20727;-85
2021/03/21 05:43:21;;;;;;;2.60;2.40;;;;;;;;;;5033891;28;20186;-84
2021/03/21 05:46:22;;;;;;;1.95;1.85;;;;;;;;;;4951616;29;20204;-86
2021/03/21 05:49:20;;;;;;;2.45;2.25;;;;;;;;;;4938842;29;20209;-85
2021/03/21 05:52:22;;;;;;;2.30;2.15;;;;;;;;;;5033808;28;20226;-85
2021/03/21 05:55:22;;;;;;;1.80;1.70;;;;;;;;;;5034510;28;20235;-84
2021/03/21 05:58:28;;;;;;;1.85;1.75;;;;;;;;;;5001013;28;20237;-85
2021/03/21 06:01:13;;;;;;;2.40;2.20;;;;;;;;;;4993048;28;20209;-85
2021/03/21 06:04:25;;;;;;;1.88;1.77;;;;;;;;;;5033301;28;20198;-86
2021/03/21 06:07:30;;;;;;;3.38;2.83;;;;;;;;;;5033128;28;20237;-85
2021/03/21 06:11:11;;;;;;;2.40;2.20;;;;;;;;;;5033083;28;20619;-85
2021/03/21 06:13:48;;;;;;;2.22;2.03;;;;;;;;;;4972279;28;20196;-85
2021/03/21 06:16:49;;;;;;;2.13;1.92;;;;;;;;;;5032575;28;20230;-84
2021/03/21 06:19:39;;;;;;;2.55;2.13;;;;;;;;;;5032649;28;20276;-86
2021/03/21 06:22:50;;;;;;;1.80;1.70;;;;;;;;;;5033112;28;20190;-85
2021/03/21 06:25:47;;;;;;;2.30;2.10;;;;;;;;;;4986160;28;20202;-86
2021/03/21 06:28:50;;;;;;;2.15;1.95;;;;;;;;;;5032704;28;20247;-85
2021/03/21 06:32:13;;;;;;;2.45;2.28;;;;;;;;;;5032616;28;20218;-86
2021/03/21 06:34:47;;;;;;;2.50;2.30;;;;;;;;;;4972277;28;20189;-84
2021/03/21 06:37:45;;;;;;;2.10;2.00;;;;;;;;;;4971849;28;20342;-84
2021/03/21 06:40:55;;;;;;;2.63;2.42;;;;;;;;;;5016646;28;20194;-84
2021/03/21 06:43:47;;;;;;;2.25;2.08;;;;;;;;;;5003537;28;20212;-84
2021/03/21 06:46:51;;;;;;;2.03;1.92;;;;;;;;;;5032576;28;20194;-84
2021/03/21 06:49:46;;;;;;;2.25;2.08;;;;;;;;;;5032923;28;20187;-84
2021/03/21 06:52:27;;;;;;;2.15;1.95;;;;;;;;;;5032904;28;20206;-84
2021/03/21 06:55:02;;;;;;;2.13;1.92;;;;;;;;;;5033216;28;20602;-84
2021/03/21 06:58:27;;;;;;;2.78;2.58;;;;;;;;;;5032806;28;20311;-85
2021/03/21 07:01:05;;;;;;;1.85;1.75;;;;;;;;;;5003338;28;20206;-84
2021/03/21 07:04:38;;;;;;;2.00;1.90;;;;;;;;;;5032510;28;20563;-84
2021/03/21 07:08:18;;;;;;;1.90;1.80;;;;;;;;;;5034088;28;20226;-84
2021/03/21 07:11:23;;;;;;;2.30;1.75;;;;;;;;;;5032879;28;20630;-84
2021/03/21 07:14:40;;;;;;;2.05;1.95;;;;;;;;;;5032404;28;20194;-84
2021/03/21 07:17:42;;;;;;;1.77;1.67;;;;;;;;;;5032148;28;20210;-84
2021/03/21 07:21:14;;;;;;;2.50;2.30;;;;;;;;;;5013241;28;20226;-84
2021/03/21 07:24:41;;;;;;;2.95;2.47;;;;;;;;;;4994643;28;20203;-84
2021/03/21 07:27:44;;;;;;;2.92;2.72;;;;;;;;;;5036335;28;20226;-84
2021/03/21 07:30:15;;;;;;;2.97;2.35;;;;;;;;;;5001037;28;20272;-84
2021/03/21 07:33:34;;;;;;;2.65;2.45;;;;;;;;;;5016317;28;20183;-84
2021/03/21 07:36:33;;;;;;;1.83;1.73;;;;;;;;;;5016339;28;20190;-84
2021/03/21 07:39:22;;;;;;;2.65;2.45;;;;;;;;;;4955651;29;20288;-84
2021/03/21 07:42:29;;;;;;;2.40;2.17;;;;;;;;;;4978609;28;20261;-84
2021/03/21 07:45:11;;;;;;;2.70;1.98;;;;;;;;;;5032625;28;20205;-84
2021/03/21 07:47:53;;;;;;;1.30;1.20;;;;;;;;;;5035722;28;20226;-85
2021/03/21 07:50:40;;;;;;;1.92;1.83;;;;;;;;;;5036461;28;20190;-84
2021/03/21 07:53:26;;;;;;;2.50;2.05;;;;;;;;;;5036085;28;20198;-84
2021/03/21 07:56:07;;;;;;;2.88;2.50;;;;;;;;;;5035959;28;20209;-84
2021/03/21 07:58:45;;;;;;;2.67;2.08;;;;;;;;;;5035833;28;20233;-84
2021/03/21 08:01:12;;;;;;;2.03;1.92;;;;;;;;;;5035724;28;20560;-84
2021/03/21 08:03:52;;;;;;;2.10;1.92;;;;;;;;;;5034840;28;20202;-84
2021/03/21 08:06:28;;;;;;;2.03;1.83;;;;;;;;;;5035159;28;20586;-84
2021/03/21 08:09:06;;;;;;;2.00;1.80;;;;;;;;;;5035072;28;20198;-84
2021/03/21 08:11:37;;;;;;;3.00;2.13;;;;;;;;;;5034653;28;20213;-84
2021/03/21 08:14:16;;;;;;;2.28;1.98;;;;;;;;;;5034862;28;20225;-85
2021/03/21 08:16:48;;;;;;;1.63;1.52;;;;;;;;;;5034807;28;20226;-84
2021/03/21 08:19:22;;;;;;;3.03;2.00;;;;;;;;;;5034877;28;20222;-84
2021/03/21 08:21:51;;;;;;;2.35;1.60;;;;;;;;;;5035073;28;20532;-84
2021/03/21 08:24:22;;;;;;;2.05;1.95;;;;;;;;;;5035116;28;20225;-84
2021/03/21 08:27:02;;;;;;;1.50;1.30;;;;;;;;;;5035166;28;20688;-84
2021/03/21 08:29:58;;;;;;;1.75;1.65;;;;;;;;;;5035471;28;20187;-84
2021/03/21 08:32:25;;;;;;;1.58;1.40;;;;;;;;;;5033954;28;20214;-84
2021/03/21 08:35:16;;;;;;;2.20;1.98;;;;;;;;;;5034953;28;20699;-84
2021/03/21 08:37:46;;;;;;;2.58;1.95;;;;;;;;;;5034923;28;20724;-84
2021/03/21 08:40:23;;;;;;;3.33;1.88;;;;;;;;;;5035279;28;20186;-85
2021/03/21 08:43:21;;;;;;;2.85;2.10;;;;;;;;;;5034917;28;20186;-84
2021/03/21 08:45:53;;;;;;;1.70;1.60;;;;;;;;;;5035501;28;20244;-84
2021/03/21 08:48:34;;;;;;;2.90;1.90;;;;;;;;;;5034522;28;20223;-84
2021/03/21 08:51:29;;;;;;;1.75;1.65;;;;;;;;;;5034955;28;20215;-84
2021/03/21 08:54:02;;;;;;;2.10;1.90;;;;;;;;;;5034740;28;20760;-84
2021/03/21 08:56:32;;;;;;;1.88;1.77;;;;;;;;;;5034885;28;20189;-84
2021/03/21 08:59:26;;;;;;;7.75;2.13;;;;;;;;;;5034805;28;20568;-84
2021/03/21 09:02:02;;;;;;;1.67;1.58;;;;;;;;;;5035527;28;20206;-84
2021/03/21 09:04:34;;;;;;;1.85;1.70;;;;;;;;;;5032360;28;20273;-84
2021/03/21 09:07:25;;;;;;;4.50;2.03;;;;;;;;;;5034054;28;20226;-83
2021/03/21 09:10:25;;;;;;;7.43;2.47;;;;;;;;;;5031670;28;20206;-84
2021/03/21 09:12:55;;;;;;;2.20;1.77;;;;;;;;;;5036966;28;20218;-84
2021/03/21 09:15:30;;;;;;;7.97;2.15;;;;;;;;;;5034170;28;20201;-84
2021/03/21 09:18:20;;;;;;;2.15;1.50;;;;;;;;;;5034252;28;20225;-84
2021/03/21 09:21:17;;;;;;;1.40;1.23;;;;;;;;;;5033957;28;20233;-85
2021/03/21 09:23:51;;;;;;;3.35;1.52;;;;;;;;;;5034192;28;20676;-84
2021/03/21 09:26:35;;;;;;;2.10;1.63;;;;;;;;;;5034619;28;20273;-85
2021/03/21 09:29:22;;;;;;;4.60;1.90;;;;;;;;;;5034543;28;20592;-85
2021/03/21 09:31:57;;;;;;;5.45;2.35;;;;;;;;;;5034344;28;20215;-84
2021/03/21 09:34:38;;;;;;;4.32;1.95;;;;;;;;;;5034272;28;20386;-84
2021/03/21 09:37:08;;;;;;;4.43;1.90;;;;;;;;;;5034269;28;20276;-84
2021/03/21 09:39:38;;;;;;;9.57;3.40;;;;;;;;;;5034062;28;20191;-84
2021/03/21 09:42:10;;;;;;;3.40;1.90;;;;;;;;;;5014535;28;20187;-84
2021/03/21 09:44:41;;;;;;;5.97;2.75;;;;;;;;;;5014863;28;20190;-85
2021/03/21 09:47:32;;;;;;;2.72;1.88;;;;;;;;;;5007531;28;20278;-85
2021/03/21 09:50:29;;;;;;;5.25;2.40;;;;;;;;;;5009810;28;20626;-84
2021/03/21 09:53:21;;;;;;;8.35;2.80;;;;;;;;;;5033024;28;20309;-84
2021/03/21 09:55:51;;;;;;;4.20;2.05;;;;;;;;;;5034158;28;20206;-85
2021/03/21 09:58:39;;;;;;;7.93;2.85;;;;;;;;;;5033576;28;20696;-84
2021/03/21 10:01:19;;;;;;;10.32;2.30;;;;;;;;;;5033745;28;20194;-84
2021/03/21 10:03:53;;;;;;;5.22;2.20;;;;;;;;;;5033958;28;20260;-84
2021/03/21 10:06:23;;;;;;;5.57;2.45;;;;;;;;;;5033439;28;20179;-84
2021/03/21 10:09:01;;;;;;;5.43;2.50;;;;;;;;;;5033325;28;20185;-83
2021/03/21 10:11:31;;;;;;;7.88;2.63;;;;;;;;;;5033337;28;20240;-84
2021/03/21 10:14:00;;;;;;;9.88;3.80;;;;;;;;;;5033733;28;20187;-84
2021/03/21 10:16:35;;;;;;;9.77;2.72;;;;;;;;;;5033391;28;20191;-84
2021/03/21 10:19:07;;;;;;;10.95;2.70;;;;;;;;;;5032851;28;20711;-84
2021/03/21 10:21:41;;;;;;;7.03;2.55;;;;;;;;;;5033144;28;20290;-84
2021/03/21 10:24:34;;;;;;;5.25;2.63;;;;;;;;;;5033408;28;20532;-83
2021/03/21 10:27:38;;;;;;;8.90;3.28;;;;;;;;;;5033248;28;20735;-84
2021/03/21 10:30:28;;;;;;;8.85;2.92;;;;;;;;;;5033613;28;20193;-84
2021/03/21 10:33:35;;;;;;;11.65;3.25;;;;;;;;;;5033509;28;20218;-83
2021/03/21 10:36:02;;;;;;;8.48;3.97;;;;;;;;;;5009735;28;20198;-84
2021/03/21 10:38:52;;;;;;;7.60;2.92;;;;;;;;;;5033389;28;20230;-84
2021/03/21 10:42:05;;;;;;;7.32;3.45;;;;;;;;;;5033354;28;20197;-84
2021/03/21 10:44:59;;;;;;;8.50;3.08;;;;;;;;;;4997653;28;20583;-84
2021/03/21 10:47:50;;;;;;;13.63;3.33;;;;;;;;;;5033379;28;20271;-84
2021/03/21 10:51:00;;;;;;;7.07;2.50;;;;;;;;;;5033457;28;20195;-84
2021/03/21 10:53:33;;;;;;;6.15;2.65;;;;;;;;;;5031883;28;20629;-84
2021/03/21 10:56:19;;;;;;;9.35;3.08;;;;;;;;;;5032486;28;20201;-83
2021/03/21 10:59:15;;;;;;;8.68;4.82;;;;;;;;;;5033504;28;20289;-83
2021/03/21 11:01:43;;;;;;;13.35;4.00;;;;;;;;;;5027725;28;20259;-84
2021/03/21 11:04:35;;;;;;;14.57;4.10;;;;;;;;;;5034036;28;20194;-84
2021/03/21 11:07:18;;;;;;;12.55;4.47;;;;;;;;;;5032953;28;20332;-83
2021/03/21 11:09:59;;;;;;;13.95;3.67;;;;;;;;;;5033102;28;20277;-85
2021/03/21 11:12:36;;;;;;;18.20;5.22;;;;;;;;;;5033283;28;20211;-84
2021/03/21 11:15:32;;;;;;;15.38;4.35;;;;;;;;;;5033283;28;20192;-85
2021/03/21 11:18:21;;;;;;;15.48;6.07;;;;;;;;;;5031935;28;20226;-84
2021/03/21 11:20:49;;;;;;;17.65;5.65;;;;;;;;;;5033033;28;20245;-84
2021/03/21 11:23:21;;;;;;;9.35;4.03;;;;;;;;;;5032308;28;20633;-84
2021/03/21 11:25:53;;;;;;;13.75;4.72;;;;;;;;;;5034120;28;20182;-84
2021/03/21 11:29:10;;;;;;;14.48;4.53;;;;;;;;;;5037438;28;20222;-86
2021/03/21 11:31:40;;;;;;;10.63;4.28;;;;;;;;;;5030820;28;20229;-86
2021/03/21 11:34:18;;;;;;;16.02;5.03;;;;;;;;;;5033006;28;20262;-85
2021/03/21 11:36:47;;;;;;;13.50;3.97;;;;;;;;;;5031549;28;20229;-84
2021/03/21 11:39:30;;;;;;;13.38;4.47;;;;;;;;;;5032520;28;20191;-85
2021/03/21 11:41:58;;;;;;;20.23;4.70;;;;;;;;;;5032400;28;20182;-84
2021/03/21 11:44:29;;;;;;;13.93;4.32;;;;;;;;;;5033249;28;20566;-84
2021/03/21 11:47:12;;;;;;;14.15;4.82;;;;;;;;;;5035440;28;20652;-86
2021/03/21 11:49:41;;;;;;;17.70;5.57;;;;;;;;;;5033454;28;20187;-85
2021/03/21 11:52:10;;;;;;;15.77;5.25;;;;;;;;;;5032605;28;20213;-85
2021/03/21 11:54:38;;;;;;;11.25;3.88;;;;;;;;;;5033497;28;20206;-84
2021/03/21 11:57:27;;;;;;;9.07;4.97;;;;;;;;;;5032602;28;20221;-84
2021/03/21 11:59:59;;;;;;;20.05;4.60;;;;;;;;;;5033517;28;20199;-85
2021/03/21 12:02:48;;;;;;;17.15;4.68;;;;;;;;;;5033187;28;20282;-84
2021/03/21 12:05:20;;;;;;;14.68;6.13;;;;;;;;;;5032486;28;20191;-84
2021/03/21 12:07:49;;;;;;;24.83;7.07;;;;;;;;;;5035379;28;20713;-84
2021/03/21 12:10:30;;;;;;;17.70;5.47;;;;;;;;;;5036470;28;20187;-84
2021/03/21 12:12:57;;;;;;;15.18;4.15;;;;;;;;;;5035897;28;20244;-83
2021/03/21 12:15:39;;;;;;;16.52;4.40;;;;;;;;;;5036122;28;20189;-84
2021/03/21 12:18:12;;;;;;;14.35;5.90;;;;;;;;;;5033405;28;20232;-84
2021/03/21 12:20:45;;;;;;;16.77;4.85;;;;;;;;;;5036389;28;20340;-84
2021/03/21 12:23:38;;;;;;;19.27;5.32;;;;;;;;;;5035218;28;20201;-84
2021/03/21 12:26:20;;;;;;;13.77;4.72;;;;;;;;;;5035648;28;20198;-84
2021/03/21 12:28:58;;;;;;;15.45;5.35;;;;;;;;;;5036387;28;20558;-84
2021/03/21 12:31:34;;;;;;;11.85;4.22;;;;;;;;;;5035745;28;20193;-85
2021/03/21 12:34:36;;;;;;;12.48;4.03;;;;;;;;;;5035681;28;20863;-84
2021/03/21 12:37:07;;;;;;;13.82;4.00;;;;;;;;;;5032453;28;20229;-84
2021/03/21 12:39:40;;;;;;;20.08;5.93;;;;;;;;;;5035370;28;20538;-84
2021/03/21 12:42:30;;;;;;;15.38;4.97;;;;;;;;;;5035922;28;20267;-84
2021/03/21 12:45:21;;;;;;;24.42;6.97;;;;;;;;;;5035568;28;20248;-84
2021/03/21 12:48:02;;;;;;;17.02;4.63;;;;;;;;;;5035396;28;20223;-84
2021/03/21 12:50:43;;;;;;;11.65;4.47;;;;;;;;;;5035656;28;20288;-83
2021/03/21 12:53:21;;;;;;;14.45;4.32;;;;;;;;;;5035714;28;20206;-83
2021/03/21 12:55:50;;;;;;;10.02;4.57;;;;;;;;;;5035264;28;20267;-84
2021/03/21 12:58:25;;;;;;;14.30;4.80;;;;;;;;;;5035211;28;20592;-84
2021/03/21 13:00:56;;;;;;;19.90;4.90;;;;;;;;;;5035182;28;20202;-84
2021/03/21 13:03:28;;;;;;;12.20;4.97;;;;;;;;;;5034574;28;20183;-83
2021/03/21 13:06:06;;;;;;;18.77;5.00;;;;;;;;;;5034644;28;20646;-83
2021/03/21 13:08:34;;;;;;;14.02;6.35;;;;;;;;;;5034648;28;20228;-84
2021/03/21 13:11:07;;;;;;;12.07;4.22;;;;;;;;;;5034412;28;20201;-84
2021/03/21 13:13:35;;;;;;;19.02;5.00;;;;;;;;;;5034795;28;20210;-84
2021/03/21 13:16:05;;;;;;;19.45;6.20;;;;;;;;;;5034812;28;20182;-85
2021/03/21 13:18:32;;;;;;;19.15;5.70;;;;;;;;;;5033466;28;20225;-84
2021/03/21 13:21:03;;;;;;;10.02;3.80;;;;;;;;;;5034187;28;20706;-84
2021/03/21 13:23:30;;;;;;;23.42;6.20;;;;;;;;;;5034377;28;20186;-84
2021/03/21 13:25:57;;;;;;;16.67;5.07;;;;;;;;;;5034359;28;20726;-84
2021/03/21 13:28:31;;;;;;;13.10;4.30;;;;;;;;;;5034362;28;20222;-85
2021/03/21 13:31:01;;;;;;;16.77;5.10;;;;;;;;;;5033959;28;20627;-84
2021/03/21 13:33:31;;;;;;;22.73;5.70;;;;;;;;;;5024789;28;20858;-83
2021/03/21 13:36:00;;;;;;;12.52;4.97;;;;;;;;;;5033931;28;20198;-84
2021/03/21 13:38:31;;;;;;;13.98;5.20;;;;;;;;;;5034245;28;20222;-84
2021/03/21 13:40:59;;;;;;;13.95;4.60;;;;;;;;;;5033665;28;20201;-84
2021/03/21 13:43:30;;;;;;;18.33;5.68;;;;;;;;;;5034076;28;20183;-84
2021/03/21 13:46:00;;;;;;;13.43;5.20;;;;;;;;;;5033978;28;20214;-84
2021/03/21 13:48:35;;;;;;;17.08;5.55;;;;;;;;;;5025630;28;20629;-83
2021/03/21 13:51:07;;;;;;;21.55;5.53;;;;;;;;;;5034175;28;20260;-84
2021/03/21 13:53:36;;;;;;;19.08;6.95;;;;;;;;;;5033360;28;20747;-84
2021/03/21 13:56:07;;;;;;;22.92;5.18;;;;;;;;;;5034608;28;20194;-84
2021/03/21 13:58:36;;;;;;;14.80;5.53;;;;;;;;;;5034741;28;20222;-84
2021/03/21 14:01:05;;;;;;;14.15;4.45;;;;;;;;;;5033762;28;20205;-84
2021/03/21 14:03:32;;;;;;;11.93;4.68;;;;;;;;;;5034294;28;20248;-84
2021/03/21 14:06:00;;;;;;;14.13;5.28;;;;;;;;;;5034665;28;20187;-83
2021/03/21 14:08:28;;;;;;;16.52;6.13;;;;;;;;;;5034119;28;20226;-84
2021/03/21 14:11:01;;;;;;;11.93;5.05;;;;;;;;;;5034379;28;20244;-85
2021/03/21 14:13:27;;;;;;;14.07;5.05;;;;;;;;;;5017963;28;20238;-84
2021/03/21 14:16:10;;;;;;;15.80;5.80;;;;;;;;;;5034164;28;20199;-85
2021/03/21 14:18:37;;;;;;;15.93;5.38;;;;;;;;;;5038526;28;20233;-84
2021/03/21 14:21:05;;;;;;;17.83;4.97;;;;;;;;;;5037499;28;20222;-84
2021/03/21 14:23:32;;;;;;;12.05;4.93;;;;;;;;;;5036856;28;20214;-84
2021/03/21 14:26:00;;;;;;;15.65;5.40;;;;;;;;;;5033020;28;20209;-84
2021/03/21 14:28:34;;;;;;;22.23;7.43;;;;;;;;;;5032709;28;20210;-84
2021/03/21 14:31:03;;;;;;;17.73;6.43;;;;;;;;;;5032761;28;20264;-84
2021/03/21 14:33:31;;;;;;;13.60;5.43;;;;;;;;;;5013228;28;20218;-84
2021/03/21 14:35:58;;;;;;;15.77;5.47;;;;;;;;;;5013359;28;20198;-83
2021/03/21 14:38:29;;;;;;;21.52;5.55;;;;;;;;;;5022886;28;20632;-83
2021/03/21 14:40:56;;;;;;;15.57;4.80;;;;;;;;;;5033197;28;20626;-84
2021/03/21 14:43:25;;;;;;;14.00;4.68;;;;;;;;;;5032809;28;20194;-85
2021/03/21 14:45:54;;;;;;;11.85;4.45;;;;;;;;;;5033427;28;20190;-84
2021/03/21 14:48:23;;;;;;;16.45;4.70;;;;;;;;;;5033263;28;20309;-85
2021/03/21 14:51:10;;;;;;;13.15;4.57;;;;;;;;;;5033377;28;20198;-84
2021/03/21 14:53:37;;;;;;;15.88;5.25;;;;;;;;;;5021130;28;20203;-85
2021/03/21 14:56:05;;;;;;;19.98;5.63;;;;;;;;;;5033056;28;20198;-85
2021/03/21 14:58:34;;;;;;;16.98;5.60;;;;;;;;;;5033260;28;20286;-84
2021/03/21 15:01:03;;;;;;;16.20;5.65;;;;;;;;;;5033262;28;20190;-85
2021/03/21 15:03:33;;;;;;;14.20;4.75;;;;;;;;;;5033215;28;20199;-84
2021/03/21 15:06:01;;;;;;;14.93;5.57;;;;;;;;;;5033376;28;20190;-84
2021/03/21 15:08:31;;;;;;;15.95;4.22;;;;;;;;;;5034075;28;20222;-84
2021/03/21 15:11:01;;;;;;;17.30;4.85;;;;;;;;;;5033540;28;20190;-84
2021/03/21 15:13:29;;;;;;;12.32;4.30;;;;;;;;;;5033021;28;20211;-83
2021/03/21 15:16:12;;;;;;;10.75;3.58;;;;;;;;;;5032522;28;20195;-84
2021/03/21 15:18:46;;;;;;;16.50;4.28;;;;;;;;;;5032509;28;20250;-84
2021/03/21 15:21:15;;;;;;;16.98;4.65;;;;;;;;;;4994587;28;20191;-84
2021/03/21 15:23:46;;;;;;;15.48;5.10;;;;;;;;;;4985519;28;20198;-84
2021/03/21 15:26:15;;;;;;;16.77;6.32;;;;;;;;;;5013467;28;20203;-84
2021/03/21 15:28:49;;;;;;;17.05;5.20;;;;;;;;;;5013660;28;20214;-84
2021/03/21 15:31:29;;;;;;;18.33;4.75;;;;;;;;;;5013297;28;20611;-84
2021/03/21 15:33:58;;;;;;;15.93;4.63;;;;;;;;;;5008585;28;20685;-84
2021/03/21 15:36:26;;;;;;;18.27;5.47;;;;;;;;;;5014247;28;20582;-84
2021/03/21 15:38:55;;;;;;;13.05;4.35;;;;;;;;;;5006149;28;20269;-84
2021/03/21 15:41:24;;;;;;;12.10;5.03;;;;;;;;;;5013705;28;20251;-84
2021/03/21 15:43:56;;;;;;;16.92;5.35;;;;;;;;;;5016795;28;20532;-85
2021/03/21 15:46:29;;;;;;;16.48;5.30;;;;;;;;;;5016372;28;20191;-84